createdAt,value
2018-09-10T00:00:20.402Z,0.90
2018-09-10T00:02:48.110Z,0.90
2018-09-10T00:05:15.738Z,0.90
2018-09-10T00:07:43.482Z,0.90
2018-09-10T00:10:11.184Z,0.90
2018-09-10T00:12:38.922Z,1.00
2018-09-10T00:15:06.760Z,0.90
2018-09-10T00:17:34.456Z,1.00
2018-09-10T00:20:02.244Z,1.30
2018-09-10T00:22:29.952Z,1.00
2018-09-10T00:24:57.624Z,1.00
2018-09-10T00:27:25.386Z,1.00
2018-09-10T00:29:53.254Z,1.00
2018-09-10T00:32:21.118Z,1.00
2018-09-10T00:34:48.765Z,1.00
2018-09-10T00:37:16.649Z,1.00
2018-09-10T00:39:44.356Z,0.97
2018-09-10T00:42:12.195Z,1.00
2018-09-10T00:44:39.944Z,1.00
2018-09-10T00:47:07.681Z,1.10
2018-09-10T00:49:35.477Z,1.10
2018-09-10T00:52:03.160Z,1.00
2018-09-10T00:54:30.812Z,1.00
2018-09-10T00:56:58.630Z,1.00
2018-09-10T00:59:26.338Z,1.33
2018-09-10T01:01:54.393Z,1.00
2018-09-10T01:04:22.044Z,1.10
2018-09-10T01:06:50.747Z,1.00
2018-09-10T01:09:18.763Z,1.00
2018-09-10T01:11:46.543Z,1.00
2018-09-10T01:14:14.307Z,1.00
2018-09-10T01:16:42.059Z,1.00
2018-09-10T01:19:09.745Z,1.10
2018-09-10T01:21:37.996Z,1.03
2018-09-10T01:24:05.806Z,1.00
2018-09-10T01:26:33.578Z,1.20
2018-09-10T01:29:01.929Z,1.00
2018-09-10T01:31:29.823Z,1.07
2018-09-10T01:35:04.861Z,1.37
2018-09-10T01:37:33.634Z,1.00
2018-09-10T01:40:02.053Z,0.90
2018-09-10T01:42:30.868Z,1.13
2018-09-10T01:44:59.634Z,0.90
2018-09-10T01:47:27.663Z,1.00
2018-09-10T01:49:55.562Z,1.10
2018-09-10T01:52:23.770Z,1.00
2018-09-10T01:54:51.589Z,1.00
2018-09-10T01:57:19.310Z,1.00
2018-09-10T01:59:47.050Z,1.00
2018-09-10T02:02:15.333Z,1.10
2018-09-10T02:04:43.533Z,2.13
2018-09-10T02:07:11.272Z,1.00
2018-09-10T02:09:39.104Z,0.90
2018-09-10T02:12:11.380Z,1.00
2018-09-10T02:14:39.197Z,1.00
2018-09-10T02:17:06.992Z,1.00
2018-09-10T02:19:34.678Z,1.00
2018-09-10T02:22:02.402Z,1.10
2018-09-10T02:24:30.208Z,1.00
2018-09-10T02:26:58.294Z,0.90
2018-09-10T02:29:25.988Z,1.10
2018-09-10T02:31:53.682Z,1.00
2018-09-10T02:34:21.422Z,1.00
2018-09-10T02:36:49.104Z,1.10
2018-09-10T02:39:16.822Z,1.00
2018-09-10T02:41:44.522Z,1.00
2018-09-10T02:44:13.405Z,0.90
2018-09-10T02:46:41.290Z,1.00
2018-09-10T02:49:09.291Z,1.00
2018-09-10T02:51:37.114Z,1.10
2018-09-10T02:54:05.023Z,1.00
2018-09-10T02:56:32.767Z,1.00
2018-09-10T02:59:00.539Z,1.00
2018-09-10T03:01:28.399Z,0.90
2018-09-10T03:03:56.268Z,0.90
2018-09-10T03:06:24.039Z,1.00
2018-09-10T03:08:51.986Z,1.00
2018-09-10T03:11:19.705Z,1.20
2018-09-10T03:13:47.593Z,1.00
2018-09-10T03:16:15.477Z,0.90
2018-09-10T03:18:43.610Z,1.00
2018-09-10T03:21:11.574Z,1.00
2018-09-10T03:23:39.263Z,1.20
2018-09-10T03:26:07.193Z,1.00
2018-09-10T03:28:35.034Z,1.00
2018-09-10T03:31:02.890Z,1.10
2018-09-10T03:33:31.104Z,1.00
2018-09-10T03:35:58.813Z,1.07
2018-09-10T03:38:26.649Z,1.00
2018-09-10T03:40:54.355Z,1.00
2018-09-10T03:43:22.117Z,1.00
2018-09-10T03:45:49.808Z,1.20
2018-09-10T03:48:17.693Z,1.00
2018-09-10T03:50:45.622Z,1.10
2018-09-10T03:53:20.155Z,1.00
2018-09-10T03:55:47.845Z,1.10
2018-09-10T03:58:15.521Z,0.90
2018-09-10T04:00:43.486Z,1.00
2018-09-10T04:03:11.188Z,1.40
2018-09-10T04:05:39.107Z,1.10
2018-09-10T04:08:06.833Z,1.00
2018-09-10T04:10:34.672Z,0.90
2018-09-10T04:13:02.446Z,1.00
2018-09-10T04:15:30.171Z,1.00
2018-09-10T04:17:58.313Z,1.00
2018-09-10T04:20:25.976Z,0.93
2018-09-10T04:22:53.704Z,1.00
2018-09-10T04:25:21.409Z,1.00
2018-09-10T04:27:49.069Z,0.90
2018-09-10T04:30:16.881Z,1.10
2018-09-10T04:32:44.671Z,1.10
2018-09-10T04:35:12.379Z,0.90
2018-09-10T04:37:40.846Z,1.30
2018-09-10T04:40:08.521Z,1.00
2018-09-10T04:42:36.294Z,0.90
2018-09-10T04:45:04.879Z,0.90
2018-09-10T04:47:32.621Z,1.07
2018-09-10T04:50:00.374Z,1.00
2018-09-10T04:52:28.096Z,1.30
2018-09-10T04:54:55.805Z,1.00
2018-09-10T04:57:23.519Z,1.10
2018-09-10T04:59:51.783Z,1.07
2018-09-10T05:02:19.592Z,1.10
2018-09-10T05:04:47.288Z,1.00
2018-09-10T05:07:14.950Z,1.00
2018-09-10T05:09:42.608Z,1.00
2018-09-10T05:12:10.361Z,0.90
2018-09-10T05:14:38.214Z,0.90
2018-09-10T05:17:06.166Z,2.50
2018-09-10T05:19:34.918Z,1.03
2018-09-10T05:22:03.921Z,1.10
2018-09-10T05:24:31.869Z,1.00
2018-09-10T05:26:59.869Z,1.63
2018-09-10T05:29:27.884Z,1.10
2018-09-10T05:31:55.776Z,1.00
2018-09-10T05:34:23.536Z,1.00
2018-09-10T05:36:51.729Z,0.90
2018-09-10T05:39:19.613Z,0.90
2018-09-10T05:41:48.120Z,1.00
2018-09-10T05:44:15.751Z,1.00
2018-09-10T05:46:43.435Z,1.00
2018-09-10T05:49:11.175Z,0.90
2018-09-10T05:51:39.019Z,1.00
2018-09-10T05:54:06.743Z,0.90
2018-09-10T05:56:34.623Z,1.10
2018-09-10T05:59:02.442Z,1.00
2018-09-10T06:01:30.249Z,0.90
2018-09-10T06:03:58.030Z,0.90
2018-09-10T06:06:25.873Z,0.93
2018-09-10T06:08:53.578Z,1.00
2018-09-10T06:11:21.412Z,0.90
2018-09-10T06:13:49.077Z,1.03
2018-09-10T06:16:16.773Z,1.00
2018-09-10T06:18:44.577Z,1.00
2018-09-10T06:21:12.309Z,0.90
2018-09-10T06:23:40.123Z,0.90
2018-09-10T06:26:08.104Z,0.90
2018-09-10T06:28:35.890Z,1.43
2018-09-10T06:31:03.672Z,1.00
2018-09-10T06:33:31.516Z,5.70
2018-09-10T06:35:59.208Z,0.80
2018-09-10T06:38:26.871Z,2.87
2018-09-10T06:40:54.698Z,0.73
2018-09-10T06:43:22.512Z,1.10
2018-09-10T06:45:50.234Z,1.00
2018-09-10T06:48:18.024Z,0.70
2018-09-10T06:50:45.729Z,0.63
2018-09-10T06:53:13.612Z,0.70
2018-09-10T06:55:41.453Z,0.83
2018-09-10T06:58:09.237Z,0.70
2018-09-10T07:00:36.993Z,0.60
2018-09-10T07:03:05.203Z,0.60
2018-09-10T07:05:33.076Z,0.90
2018-09-10T07:08:01.078Z,0.70
2018-09-10T07:10:28.899Z,6.63
2018-09-10T07:12:56.597Z,7.10
2018-09-10T07:15:24.293Z,8.10
2018-09-10T07:17:52.061Z,9.03
2018-09-10T07:20:19.765Z,7.97
2018-09-10T07:22:47.751Z,7.23
2018-09-10T07:25:17.035Z,6.53
2018-09-10T07:27:46.501Z,5.87
2018-09-10T07:30:19.930Z,6.60
2018-09-10T07:32:47.756Z,6.70
2018-09-10T07:35:15.417Z,9.77
2018-09-10T07:37:43.080Z,6.30
2018-09-10T07:40:10.914Z,6.23
2018-09-10T07:42:38.730Z,10.33
2018-09-10T07:45:06.496Z,6.63
2018-09-10T07:47:34.174Z,6.60
2018-09-10T07:50:01.845Z,6.53
2018-09-10T07:52:29.649Z,5.93
2018-09-10T07:54:57.377Z,8.00
2018-09-10T07:57:25.087Z,5.70
2018-09-10T07:59:52.784Z,5.90
2018-09-10T08:02:20.575Z,6.27
2018-09-10T08:04:48.425Z,5.47
2018-09-10T08:07:16.141Z,5.60
2018-09-10T08:09:43.884Z,5.10
2018-09-10T08:12:11.506Z,6.57
2018-09-10T08:14:39.139Z,5.83
2018-09-10T08:17:06.889Z,6.00
2018-09-10T08:19:34.557Z,5.43
2018-09-10T08:22:02.304Z,6.00
2018-09-10T08:24:30.087Z,7.20
2018-09-10T08:26:57.755Z,6.40
2018-09-10T08:29:25.476Z,5.33
2018-09-10T08:31:53.201Z,6.87
2018-09-10T08:34:20.830Z,6.80
2018-09-10T08:36:48.725Z,5.77
2018-09-10T08:39:16.490Z,5.93
2018-09-10T08:41:44.195Z,6.10
2018-09-10T08:44:12.005Z,6.37
2018-09-10T08:46:39.716Z,6.87
2018-09-10T08:49:07.423Z,7.13
2018-09-10T08:51:35.145Z,6.33
2018-09-10T08:54:02.936Z,5.93
2018-09-10T08:56:30.649Z,6.00
2018-09-10T08:58:58.373Z,5.27
2018-09-10T09:01:26.210Z,9.23
2018-09-10T09:03:53.877Z,6.50
2018-09-10T09:06:21.678Z,5.50
2018-09-10T09:08:49.370Z,5.20
2018-09-10T09:11:17.067Z,7.50
2018-09-10T09:13:44.902Z,5.93
2018-09-10T09:16:12.676Z,5.47
2018-09-10T09:18:40.434Z,5.73
2018-09-10T09:21:08.739Z,5.60
2018-09-10T09:23:36.666Z,4.90
2018-09-10T09:26:04.323Z,4.83
2018-09-10T09:28:32.006Z,5.27
2018-09-10T09:30:59.729Z,4.80
2018-09-10T09:33:27.422Z,6.90
2018-09-10T09:36:00.880Z,6.17
2018-09-10T09:38:34.211Z,5.10
2018-09-10T09:41:07.501Z,5.23
2018-09-10T09:43:40.861Z,5.50
2018-09-10T09:46:11.217Z,9.00
2018-09-10T09:48:38.942Z,4.30
2018-09-10T09:51:06.608Z,4.80
2018-09-10T09:53:34.837Z,4.97
2018-09-10T09:56:02.619Z,4.47
2018-09-10T09:58:30.435Z,4.57
2018-09-10T10:01:03.981Z,6.20
2018-09-10T10:03:37.445Z,4.60
2018-09-10T10:06:05.269Z,3.87
2018-09-10T10:08:32.933Z,5.30
2018-09-10T10:11:00.714Z,3.50
2018-09-10T10:13:28.553Z,4.00
2018-09-10T10:15:56.213Z,3.70
2018-09-10T10:18:24.053Z,4.60
2018-09-10T10:20:51.755Z,4.23
2018-09-10T10:23:19.653Z,4.40
2018-09-10T10:25:47.354Z,3.40
2018-09-10T10:28:15.079Z,4.90
2018-09-10T10:30:42.782Z,4.23
2018-09-10T10:33:10.634Z,3.87
2018-09-10T10:35:38.439Z,4.30
2018-09-10T10:38:06.265Z,4.80
2018-09-10T10:40:34.240Z,3.83
2018-09-10T10:43:02.024Z,5.17
2018-09-10T10:45:29.714Z,5.37
2018-09-10T10:47:57.553Z,4.43
2018-09-10T10:50:25.240Z,4.57
2018-09-10T10:52:53.054Z,3.63
2018-09-10T10:55:20.853Z,4.30
2018-09-10T10:57:49.039Z,4.70
2018-09-10T11:00:16.729Z,3.37
2018-09-10T11:02:44.527Z,11.07
2018-09-10T11:05:12.437Z,4.10
2018-09-10T11:07:40.125Z,3.47
2018-09-10T11:10:08.343Z,3.00
2018-09-10T11:12:36.065Z,3.30
2018-09-10T11:15:04.162Z,3.63
2018-09-10T11:17:31.895Z,3.87
2018-09-10T11:19:59.600Z,4.47
2018-09-10T11:22:27.413Z,3.23
2018-09-10T11:24:55.089Z,2.97
2018-09-10T11:27:22.878Z,3.70
2018-09-10T11:29:50.596Z,4.10
2018-09-10T11:32:18.309Z,3.70
2018-09-10T11:34:46.072Z,4.23
2018-09-10T11:37:13.787Z,2.70
2018-09-10T11:39:41.543Z,3.60
2018-09-10T11:42:09.265Z,3.80
2018-09-10T11:44:37.013Z,4.57
2018-09-10T11:47:04.822Z,3.30
2018-09-10T11:49:32.567Z,3.10
2018-09-10T11:52:00.189Z,2.87
2018-09-10T11:54:27.993Z,3.60
2018-09-10T11:56:55.677Z,3.90
2018-09-10T11:59:23.522Z,3.30
2018-09-10T12:01:51.229Z,3.50
2018-09-10T12:04:18.944Z,3.10
2018-09-10T12:06:46.587Z,3.87
2018-09-10T12:09:14.377Z,3.87
2018-09-10T12:11:42.149Z,3.60
2018-09-10T12:14:09.825Z,3.63
2018-09-10T12:16:37.565Z,4.20
2018-09-10T12:19:05.345Z,4.07
2018-09-10T12:21:33.051Z,3.63
2018-09-10T12:24:00.696Z,2.87
2018-09-10T12:26:28.442Z,3.47
2018-09-10T12:28:56.283Z,3.10
2018-09-10T12:31:23.983Z,2.80
2018-09-10T12:33:51.717Z,3.50
2018-09-10T12:36:19.477Z,3.03
2018-09-10T12:38:47.289Z,3.50
2018-09-10T12:41:15.205Z,3.37
2018-09-10T12:43:42.994Z,3.43
2018-09-10T12:46:10.787Z,4.80
2018-09-10T12:48:38.483Z,3.67
2018-09-10T12:51:06.141Z,3.00
2018-09-10T12:53:33.817Z,3.17
2018-09-10T12:56:01.507Z,3.13
2018-09-10T12:58:29.198Z,3.67
2018-09-10T13:00:57.143Z,3.10
2018-09-10T13:03:24.856Z,3.13
2018-09-10T13:05:52.539Z,3.30
2018-09-10T13:08:20.269Z,3.20
2018-09-10T13:10:48.191Z,2.77
2018-09-10T13:13:15.826Z,2.67
2018-09-10T13:15:43.489Z,2.43
2018-09-10T13:18:11.232Z,2.13
2018-09-10T13:20:38.878Z,2.23
2018-09-10T13:23:06.563Z,2.30
2018-09-10T13:25:34.380Z,2.77
2018-09-10T13:28:02.086Z,2.17
2018-09-10T13:30:30.102Z,2.47
2018-09-10T13:32:57.826Z,2.40
2018-09-10T13:35:25.571Z,2.53
2018-09-10T13:37:53.263Z,3.30
2018-09-10T13:40:21.079Z,2.57
2018-09-10T13:42:49.121Z,3.30
2018-09-10T13:45:16.796Z,2.50
2018-09-10T13:47:44.891Z,2.03
2018-09-10T13:50:12.650Z,2.97
2018-09-10T13:52:40.401Z,3.40
2018-09-10T13:55:08.085Z,2.73
2018-09-10T13:57:35.751Z,3.17
2018-09-10T14:00:03.968Z,3.20
2018-09-10T14:02:31.879Z,3.50
2018-09-10T14:04:59.635Z,3.30
2018-09-10T14:07:27.446Z,2.63
2018-09-10T14:09:55.247Z,2.60
2018-09-10T14:12:22.861Z,4.07
2018-09-10T14:14:50.516Z,2.50
2018-09-10T14:17:18.477Z,2.23
2018-09-10T14:19:46.216Z,2.37
2018-09-10T14:22:13.910Z,2.37
2018-09-10T14:24:41.588Z,2.93
2018-09-10T14:27:09.303Z,2.23
2018-09-10T14:29:37.078Z,3.00
2018-09-10T14:32:04.894Z,2.87
2018-09-10T14:34:32.651Z,4.93
2018-09-10T14:37:00.353Z,2.77
2018-09-10T14:39:28.068Z,3.27
2018-09-10T14:41:55.750Z,3.37
2018-09-10T14:44:23.466Z,5.40
2018-09-10T14:46:51.178Z,3.20
2018-09-10T14:49:18.894Z,3.80
2018-09-10T14:51:46.592Z,8.13
2018-09-10T14:54:14.281Z,3.40
2018-09-10T14:56:41.997Z,2.17
2018-09-10T14:59:09.712Z,2.90
2018-09-10T15:01:37.439Z,3.30
2018-09-10T15:04:05.235Z,4.60
2018-09-10T15:06:32.970Z,2.80
2018-09-10T15:09:00.703Z,2.33
2018-09-10T15:11:28.574Z,3.20
2018-09-10T15:13:56.259Z,4.03
2018-09-10T15:16:23.978Z,2.40
2018-09-10T15:18:51.825Z,2.60
2018-09-10T15:21:19.438Z,2.70
2018-09-10T15:23:47.320Z,2.73
2018-09-10T15:26:15.911Z,3.60
2018-09-10T15:28:43.841Z,9.70
2018-09-10T15:31:11.831Z,4.80
2018-09-10T15:33:39.473Z,2.93
2018-09-10T15:36:07.219Z,3.60
2018-09-10T15:38:35.035Z,2.87
2018-09-10T15:41:02.731Z,2.30
2018-09-10T15:43:30.530Z,2.70
2018-09-10T15:45:58.352Z,3.40
2018-09-10T15:48:26.174Z,3.77
2018-09-10T15:50:53.845Z,3.70
2018-09-10T15:53:21.846Z,3.33
2018-09-10T15:55:49.525Z,3.00
2018-09-10T15:58:17.268Z,2.90
2018-09-10T16:00:45.078Z,5.23
2018-09-10T16:03:13.084Z,3.30
2018-09-10T16:05:40.760Z,3.20
2018-09-10T16:08:08.490Z,6.67
